Cape Express — HO5337 — position and weather

sailwx.info

Track history (hours):
 
Tides and Currents Weather Stations Pressure Air Temp Water Temp Dewpoint Dewpoint Depression Visibility Wind Speed Wind Dir Waves Ship Positions

Cape Express

Last reported at 2016-Feb-06 16:27 UTC. Time now 2016-Feb-07 10:43 UTC.
Position N 26°02' W 079°50'.

Length 29 m; draft 2.2 m.

Type: Cargo ship. MMSI: 370269000.

Date/timePositionNaut miles runAvg speedWind from/ knotsBaromVisibWave heightAir tempDewpointWater temp
2016-Feb-06 16:27N 26°02' W 079°50'6 6.6
2016-Feb-06 15:34N 26°03' W 079°56'8 7.8
2016-Feb-06 14:31N 26°06' W 080°05'3 3.6
2016-Feb-06 13:33N 26°04' W 080°08'0 0.0
2016-Feb-06 12:32N 26°04' W 080°08'0 0.0
2016-Feb-06 11:33N 26°04' W 080°08'0 0.0
2016-Feb-06 10:33N 26°04' W 080°08'0 0.0
2016-Feb-06 09:33N 26°04' W 080°08'0 0.0
2016-Feb-06 08:33N 26°04' W 080°08'0 0.0
2016-Feb-06 07:33N 26°04' W 080°08'0 0.0
2016-Feb-06 06:33N 26°04' W 080°08'0 0.0
2016-Feb-06 05:33N 26°04' W 080°08'0 0.0
2016-Feb-06 04:33N 26°04' W 080°08'0 0.0
2016-Feb-06 03:33N 26°04' W 080°08'0 0.0
2016-Feb-06 02:33N 26°04' W 080°08'0 0.0
2016-Feb-06 01:33N 26°04' W 080°08'0 0.0
2016-Feb-06 00:34N 26°04' W 080°08'0 0.0
2016-Feb-05 23:33N 26°04' W 080°08'0 0.0
2016-Feb-05 22:33N 26°04' W 080°08'0 0.0
2016-Feb-05 21:33N 26°04' W 080°08'0 0.0
2016-Feb-05 20:33N 26°04' W 080°08'0 0.0
2016-Feb-05 19:33N 26°04' W 080°08'0 0.0
2016-Feb-05 18:33N 26°04' W 080°08'0 0.0
2016-Feb-05 17:33N 26°04' W 080°08'0 0.0
2016-Feb-05 16:33N 26°04' W 080°08'0 0.5
2016-Feb-05 15:29N 26°04' W 080°07'5 5.7
2016-Feb-05 14:31N 26°05' W 080°01'9 8.9
2016-Feb-05 13:31N 26°03' W 079°52'  
2016-Feb-03 02:30N 26°05' W 080°07'2 1.8
2016-Feb-03 01:33N 26°04' W 080°08'0 0.0
2016-Feb-03 00:33N 26°04' W 080°08'0 0.0
2016-Feb-02 23:33N 26°04' W 080°08'0 0.0
2016-Feb-02 22:34N 26°04' W 080°08'14 6.1
2016-Feb-02 20:19N 26°02' W 079°53'  
2016-Jan-31 07:33N 25°57' W 079°31'9 9.3
2016-Jan-31 06:33N 25°59' W 079°40'9 8.8
2016-Jan-31 05:33N 26°02' W 079°50'9 8.9
2016-Jan-31 04:33N 26°04' W 079°59'7 7.0
2016-Jan-31 03:33N 26°04' W 080°07'1 0.6
2016-Jan-31 02:33N 26°04' W 080°08'0 0.0
2016-Jan-31 01:33N 26°04' W 080°08'0 0.0
2016-Jan-31 00:33N 26°04' W 080°08'0 0.0
2016-Jan-30 23:33N 26°04' W 080°08'4 3.6
2016-Jan-30 22:33N 26°05' W 080°04'9 8.8
2016-Jan-30 21:33N 26°01' W 079°55'1111.0
2016-Jan-30 20:33N 25°56' W 079°45'11 1.0
2016-Jan-30 10:05N 25°51' W 079°34'4 8.2
2016-Jan-30 09:33N 25°53' W 079°39'8 7.6
2016-Jan-30 08:33N 25°56' W 079°46'7 6.9
2016-Jan-30 07:33N 25°60' W 079°53'7 7.4
2016-Jan-30 06:33N 26°03' W 080°00'6 6.3
2016-Jan-30 05:33N 26°04' W 080°07'1 0.7
2016-Jan-30 04:33N 26°04' W 080°08'0 0.0
2016-Jan-30 03:33N 26°04' W 080°08'0 0.0
2016-Jan-30 02:33N 26°04' W 080°08'0 0.0
2016-Jan-30 01:33N 26°04' W 080°08'6 6.5
2016-Jan-30 00:33N 26°07' W 080°02'9 8.7
2016-Jan-29 23:33N 26°10' W 079°53'9 8.4
2016-Jan-29 22:32N 26°13' W 079°44'10 8.8
2016-Jan-29 21:27N 26°16' W 079°33'2 0.1
2016-Jan-29 09:10N 26°16' W 079°32'6 9.5
2016-Jan-29 08:33N 26°14' W 079°38'10 9.8
2016-Jan-29 07:33N 26°11' W 079°48'1010.1
2016-Jan-29 06:33N 26°08' W 079°58'9 8.7
2016-Jan-29 05:34N 26°04' W 080°07'1 0.7
2016-Jan-29 04:33N 26°04' W 080°08'0 0.0
2016-Jan-29 03:33N 26°04' W 080°08'0 0.0
2016-Jan-29 02:33N 26°04' W 080°08'0 0.0
2016-Jan-29 01:33N 26°04' W 080°08'0 0.4
2016-Jan-29 00:33N 26°04' W 080°07'7 7.0
2016-Jan-28 23:33N 26°04' W 079°60'9 8.8
2016-Jan-28 22:33N 26°02' W 079°50'9 8.5
2016-Jan-28 21:33N 25°59' W 079°41'8 8.0
2016-Jan-28 20:33N 25°57' W 079°33'  
Track history (hours):
 
Tides and Currents Weather Stations Pressure Air Temp Water Temp Dewpoint Dewpoint Depression Visibility Wind Speed Wind Dir Waves Ship Positions

Cape Express

Last reported at 2016-Feb-06 16:27 UTC. Time now 2016-Feb-07 10:43 UTC.
Position N 26°02' W 079°50'.

Length 29 m; draft 2.2 m.

Type: Cargo ship. MMSI: 370269000.

Date/timePositionNaut miles runAvg speedWind from/ knotsBaromVisibWave heightAir tempDewpointWater temp
2016-Feb-06 16:27N 26°02' W 079°50'6 6.6
2016-Feb-06 15:34N 26°03' W 079°56'8 7.8
2016-Feb-06 14:31N 26°06' W 080°05'3 3.6
2016-Feb-06 13:33N 26°04' W 080°08'0 0.0
2016-Feb-06 12:32N 26°04' W 080°08'0 0.0
2016-Feb-06 11:33N 26°04' W 080°08'0 0.0
2016-Feb-06 10:33N 26°04' W 080°08'0 0.0
2016-Feb-06 09:33N 26°04' W 080°08'0 0.0
2016-Feb-06 08:33N 26°04' W 080°08'0 0.0
2016-Feb-06 07:33N 26°04' W 080°08'0 0.0
2016-Feb-06 06:33N 26°04' W 080°08'0 0.0
2016-Feb-06 05:33N 26°04' W 080°08'0 0.0
2016-Feb-06 04:33N 26°04' W 080°08'0 0.0
2016-Feb-06 03:33N 26°04' W 080°08'0 0.0
2016-Feb-06 02:33N 26°04' W 080°08'0 0.0
2016-Feb-06 01:33N 26°04' W 080°08'0 0.0
2016-Feb-06 00:34N 26°04' W 080°08'0 0.0
2016-Feb-05 23:33N 26°04' W 080°08'0 0.0
2016-Feb-05 22:33N 26°04' W 080°08'0 0.0
2016-Feb-05 21:33N 26°04' W 080°08'0 0.0
2016-Feb-05 20:33N 26°04' W 080°08'0 0.0
2016-Feb-05 19:33N 26°04' W 080°08'0 0.0
2016-Feb-05 18:33N 26°04' W 080°08'0 0.0
2016-Feb-05 17:33N 26°04' W 080°08'0 0.0
2016-Feb-05 16:33N 26°04' W 080°08'0 0.5
2016-Feb-05 15:29N 26°04' W 080°07'5 5.7
2016-Feb-05 14:31N 26°05' W 080°01'9 8.9
2016-Feb-05 13:31N 26°03' W 079°52'  
2016-Feb-03 02:30N 26°05' W 080°07'2 1.8
2016-Feb-03 01:33N 26°04' W 080°08'0 0.0
2016-Feb-03 00:33N 26°04' W 080°08'0 0.0
2016-Feb-02 23:33N 26°04' W 080°08'0 0.0
2016-Feb-02 22:34N 26°04' W 080°08'14 6.1
2016-Feb-02 20:19N 26°02' W 079°53'  
2016-Jan-31 07:33N 25°57' W 079°31'9 9.3
2016-Jan-31 06:33N 25°59' W 079°40'9 8.8
2016-Jan-31 05:33N 26°02' W 079°50'9 8.9
2016-Jan-31 04:33N 26°04' W 079°59'7 7.0
2016-Jan-31 03:33N 26°04' W 080°07'1 0.6
2016-Jan-31 02:33N 26°04' W 080°08'0 0.0
2016-Jan-31 01:33N 26°04' W 080°08'0 0.0
2016-Jan-31 00:33N 26°04' W 080°08'0 0.0
2016-Jan-30 23:33N 26°04' W 080°08'4 3.6
2016-Jan-30 22:33N 26°05' W 080°04'9 8.8
2016-Jan-30 21:33N 26°01' W 079°55'1111.0
2016-Jan-30 20:33N 25°56' W 079°45'11 1.0
2016-Jan-30 10:05N 25°51' W 079°34'4 8.2
2016-Jan-30 09:33N 25°53' W 079°39'8 7.6
2016-Jan-30 08:33N 25°56' W 079°46'7 6.9
2016-Jan-30 07:33N 25°60' W 079°53'7 7.4
2016-Jan-30 06:33N 26°03' W 080°00'6 6.3
2016-Jan-30 05:33N 26°04' W 080°07'1 0.7
2016-Jan-30 04:33N 26°04' W 080°08'0 0.0
2016-Jan-30 03:33N 26°04' W 080°08'0 0.0
2016-Jan-30 02:33N 26°04' W 080°08'0 0.0
2016-Jan-30 01:33N 26°04' W 080°08'6 6.5
2016-Jan-30 00:33N 26°07' W 080°02'9 8.7
2016-Jan-29 23:33N 26°10' W 079°53'9 8.4
2016-Jan-29 22:32N 26°13' W 079°44'10 8.8
2016-Jan-29 21:27N 26°16' W 079°33'2 0.1
2016-Jan-29 09:10N 26°16' W 079°32'6 9.5
2016-Jan-29 08:33N 26°14' W 079°38'10 9.8
2016-Jan-29 07:33N 26°11' W 079°48'1010.1
2016-Jan-29 06:33N 26°08' W 079°58'9 8.7
2016-Jan-29 05:34N 26°04' W 080°07'1 0.7
2016-Jan-29 04:33N 26°04' W 080°08'0 0.0
2016-Jan-29 03:33N 26°04' W 080°08'0 0.0
2016-Jan-29 02:33N 26°04' W 080°08'0 0.0
2016-Jan-29 01:33N 26°04' W 080°08'0 0.4
2016-Jan-29 00:33N 26°04' W 080°07'7 7.0
2016-Jan-28 23:33N 26°04' W 079°60'9 8.8
2016-Jan-28 22:33N 26°02' W 079°50'9 8.5
2016-Jan-28 21:33N 25°59' W 079°41'8 8.0
2016-Jan-28 20:33N 25°57' W 079°33'  

Dump ship's entire track history